sensor_id;sensor_type;location;lat;lon;timestamp;P1;durP1;ratioP1;P2;durP2;ratioP2
9280;SDS011;4679;47.966;7.958;2023-02-13T06:25:13;22.50;;;11.93;;
9280;SDS011;4679;47.966;7.958;2023-02-13T06:27:15;26.83;;;13.13;;
9280;SDS011;4679;47.966;7.958;2023-02-13T06:29:17;32.17;;;18.87;;
9280;SDS011;4679;47.966;7.958;2023-02-13T06:31:19;15.77;;;6.97;;
9280;SDS011;4679;47.966;7.958;2023-02-13T06:33:20;11.00;;;6.50;;
9280;SDS011;4679;47.966;7.958;2023-02-13T06:35:22;8.27;;;5.57;;
9280;SDS011;4679;47.966;7.958;2023-02-13T06:37:24;10.97;;;5.63;;
9280;SDS011;4679;47.966;7.958;2023-02-13T06:39:25;8.17;;;5.67;;
9280;SDS011;4679;47.966;7.958;2023-02-13T06:41:28;9.07;;;4.23;;
9280;SDS011;4679;47.966;7.958;2023-02-13T06:43:30;7.10;;;3.90;;
9280;SDS011;4679;47.966;7.958;2023-02-13T06:45:32;4.40;;;3.40;;
9280;SDS011;4679;47.966;7.958;2023-02-13T06:47:33;11.87;;;6.43;;
9280;SDS011;4679;47.966;7.958;2023-02-13T06:49:35;8.47;;;4.80;;
9280;SDS011;4679;47.966;7.958;2023-02-13T06:51:37;8.83;;;5.20;;
9280;SDS011;4679;47.966;7.958;2023-02-13T06:53:39;10.43;;;5.57;;
9280;SDS011;4679;47.966;7.958;2023-02-13T06:55:40;7.03;;;4.57;;
9280;SDS011;4679;47.966;7.958;2023-02-13T06:57:43;8.43;;;4.37;;
9280;SDS011;4679;47.966;7.958;2023-02-13T06:59:45;7.60;;;4.83;;
9280;SDS011;4679;47.966;7.958;2023-02-13T07:01:47;8.30;;;4.60;;
9280;SDS011;4679;47.966;7.958;2023-02-13T07:03:48;7.83;;;5.13;;
9280;SDS011;4679;47.966;7.958;2023-02-13T07:05:50;6.80;;;4.47;;
9280;SDS011;4679;47.966;7.958;2023-02-13T07:07:52;7.73;;;4.23;;
9280;SDS011;4679;47.966;7.958;2023-02-13T07:09:53;7.07;;;3.90;;
9280;SDS011;4679;47.966;7.958;2023-02-13T07:11:55;7.83;;;4.40;;
9280;SDS011;4679;47.966;7.958;2023-02-13T07:13:58;6.73;;;3.83;;
9280;SDS011;4679;47.966;7.958;2023-02-13T07:16:00;5.63;;;3.60;;
9280;SDS011;4679;47.966;7.958;2023-02-13T07:18:02;7.30;;;3.50;;
9280;SDS011;4679;47.966;7.958;2023-02-13T07:20:05;6.30;;;2.97;;
9280;SDS011;4679;47.966;7.958;2023-02-13T07:22:07;4.77;;;3.03;;
9280;SDS011;4679;47.966;7.958;2023-02-13T07:24:09;5.20;;;3.60;;
9280;SDS011;4679;47.966;7.958;2023-02-13T07:26:11;4.83;;;3.47;;
9280;SDS011;4679;47.966;7.958;2023-02-13T07:28:13;15.10;;;4.93;;
9280;SDS011;4679;47.966;7.958;2023-02-13T07:30:16;8.07;;;5.40;;
9280;SDS011;4679;47.966;7.958;2023-02-13T07:32:18;9.20;;;5.27;;
9280;SDS011;4679;47.966;7.958;2023-02-13T07:34:19;7.57;;;4.60;;
9280;SDS011;4679;47.966;7.958;2023-02-13T07:36:21;15.67;;;8.43;;
9280;SDS011;4679;47.966;7.958;2023-02-13T07:38:22;14.70;;;8.50;;
9280;SDS011;4679;47.966;7.958;2023-02-13T07:40:24;10.53;;;6.87;;
9280;SDS011;4679;47.966;7.958;2023-02-13T07:42:26;12.67;;;7.13;;
9280;SDS011;4679;47.966;7.958;2023-02-13T07:44:27;8.23;;;5.57;;
9280;SDS011;4679;47.966;7.958;2023-02-13T07:46:31;10.97;;;7.00;;
9280;SDS011;4679;47.966;7.958;2023-02-13T07:48:33;8.87;;;5.70;;
9280;SDS011;4679;47.966;7.958;2023-02-13T07:50:35;11.37;;;6.03;;
9280;SDS011;4679;47.966;7.958;2023-02-13T07:52:36;8.07;;;5.67;;
9280;SDS011;4679;47.966;7.958;2023-02-13T07:54:38;7.90;;;4.50;;
9280;SDS011;4679;47.966;7.958;2023-02-13T07:56:46;8.60;;;6.20;;
9280;SDS011;4679;47.966;7.958;2023-02-13T07:58:47;10.83;;;6.17;;
9280;SDS011;4679;47.966;7.958;2023-02-13T08:00:49;8.27;;;5.90;;
9280;SDS011;4679;47.966;7.958;2023-02-13T08:02:52;10.20;;;6.17;;
9280;SDS011;4679;47.966;7.958;2023-02-13T08:04:54;12.20;;;6.00;;
9280;SDS011;4679;47.966;7.958;2023-02-13T08:06:55;8.97;;;6.03;;
9280;SDS011;4679;47.966;7.958;2023-02-13T08:08:57;8.03;;;5.57;;
9280;SDS011;4679;47.966;7.958;2023-02-13T08:11:21;10.40;;;5.40;;
9280;SDS011;4679;47.966;7.958;2023-02-13T08:13:42;6.03;;;4.83;;
9280;SDS011;4679;47.966;7.958;2023-02-13T08:15:44;9.10;;;5.07;;
9280;SDS011;4679;47.966;7.958;2023-02-13T08:17:46;8.70;;;4.80;;
9280;SDS011;4679;47.966;7.958;2023-02-13T08:19:49;6.43;;;4.90;;
9280;SDS011;4679;47.966;7.958;2023-02-13T08:21:50;5.40;;;4.27;;
9280;SDS011;4679;47.966;7.958;2023-02-13T08:23:52;7.43;;;4.67;;
9280;SDS011;4679;47.966;7.958;2023-02-13T08:25:54;6.03;;;4.30;;
9280;SDS011;4679;47.966;7.958;2023-02-13T08:27:56;5.27;;;3.60;;
9280;SDS011;4679;47.966;7.958;2023-02-13T08:29:58;8.10;;;4.40;;
9280;SDS011;4679;47.966;7.958;2023-02-13T08:32:00;7.43;;;4.50;;
9280;SDS011;4679;47.966;7.958;2023-02-13T08:34:02;7.17;;;4.63;;
9280;SDS011;4679;47.966;7.958;2023-02-13T08:36:06;5.43;;;3.97;;
9280;SDS011;4679;47.966;7.958;2023-02-13T08:38:08;4.80;;;4.17;;
9280;SDS011;4679;47.966;7.958;2023-02-13T08:40:10;5.27;;;3.80;;
9280;SDS011;4679;47.966;7.958;2023-02-13T08:42:12;6.17;;;4.20;;
9280;SDS011;4679;47.966;7.958;2023-02-13T08:44:14;5.73;;;4.33;;
9280;SDS011;4679;47.966;7.958;2023-02-13T08:46:16;5.23;;;3.40;;
9280;SDS011;4679;47.966;7.958;2023-02-13T08:48:18;4.70;;;3.57;;
9280;SDS011;4679;47.966;7.958;2023-02-13T08:50:19;5.50;;;3.53;;
9280;SDS011;4679;47.966;7.958;2023-02-13T08:52:22;5.47;;;2.97;;
9280;SDS011;4679;47.966;7.958;2023-02-13T08:54:24;7.70;;;3.20;;
9280;SDS011;4679;47.966;7.958;2023-02-13T08:56:26;4.10;;;3.23;;
9280;SDS011;4679;47.966;7.958;2023-02-13T08:58:28;3.83;;;3.40;;
9280;SDS011;4679;47.966;7.958;2023-02-13T09:00:30;4.17;;;3.10;;
9280;SDS011;4679;47.966;7.958;2023-02-13T09:02:32;3.60;;;3.30;;
9280;SDS011;4679;47.966;7.958;2023-02-13T09:04:34;4.37;;;3.97;;
9280;SDS011;4679;47.966;7.958;2023-02-13T09:06:35;5.70;;;4.10;;
9280;SDS011;4679;47.966;7.958;2023-02-13T09:08:39;5.57;;;4.27;;
9280;SDS011;4679;47.966;7.958;2023-02-13T09:10:41;5.40;;;4.80;;
9280;SDS011;4679;47.966;7.958;2023-02-13T09:12:43;5.33;;;4.53;;
9280;SDS011;4679;47.966;7.958;2023-02-13T09:14:51;7.60;;;4.60;;
9280;SDS011;4679;47.966;7.958;2023-02-13T09:16:53;6.67;;;4.77;;
9280;SDS011;4679;47.966;7.958;2023-02-13T09:18:55;6.83;;;4.60;;
9280;SDS011;4679;47.966;7.958;2023-02-13T09:20:57;4.57;;;3.80;;
9280;SDS011;4679;47.966;7.958;2023-02-13T09:23:00;4.40;;;3.83;;
9280;SDS011;4679;47.966;7.958;2023-02-13T09:25:04;5.37;;;4.30;;
9280;SDS011;4679;47.966;7.958;2023-02-13T09:27:06;5.87;;;4.07;;
9280;SDS011;4679;47.966;7.958;2023-02-13T09:29:08;6.33;;;4.00;;
9280;SDS011;4679;47.966;7.958;2023-02-13T09:31:10;4.53;;;3.83;;
9280;SDS011;4679;47.966;7.958;2023-02-13T09:33:15;4.97;;;4.47;;
9280;SDS011;4679;47.966;7.958;2023-02-13T09:35:17;5.73;;;4.30;;
9280;SDS011;4679;47.966;7.958;2023-02-13T09:37:19;5.17;;;4.30;;
9280;SDS011;4679;47.966;7.958;2023-02-13T09:39:22;5.30;;;3.43;;
9280;SDS011;4679;47.966;7.958;2023-02-13T09:41:25;4.70;;;4.00;;
9280;SDS011;4679;47.966;7.958;2023-02-13T09:43:29;6.33;;;5.00;;
9280;SDS011;4679;47.966;7.958;2023-02-13T09:45:33;5.93;;;5.30;;
9280;SDS011;4679;47.966;7.958;2023-02-13T09:47:37;9.00;;;5.87;;
9280;SDS011;4679;47.966;7.958;2023-02-13T09:49:43;6.57;;;5.30;;
9280;SDS011;4679;47.966;7.958;2023-02-13T09:51:47;7.70;;;5.43;;
9280;SDS011;4679;47.966;7.958;2023-02-13T09:53:55;6.03;;;4.97;;
9280;SDS011;4679;47.966;7.958;2023-02-13T09:56:02;9.13;;;5.60;;
9280;SDS011;4679;47.966;7.958;2023-02-13T09:58:11;6.20;;;4.97;;
9280;SDS011;4679;47.966;7.958;2023-02-13T10:00:20;6.17;;;4.63;;
9280;SDS011;4679;47.966;7.958;2023-02-13T10:02:33;9.27;;;4.63;;
9280;SDS011;4679;47.966;7.958;2023-02-13T10:04:47;5.63;;;4.53;;
9280;SDS011;4679;47.966;7.958;2023-02-13T10:06:55;7.60;;;5.27;;
9280;SDS011;4679;47.966;7.958;2023-02-13T10:09:08;22.27;;;6.80;;
9280;SDS011;4679;47.966;7.958;2023-02-13T10:11:24;9.70;;;5.23;;
9280;SDS011;4679;47.966;7.958;2023-02-13T10:13:49;7.33;;;5.07;;
9280;SDS011;4679;47.966;7.958;2023-02-13T10:16:01;6.07;;;4.73;;
9280;SDS011;4679;47.966;7.958;2023-02-13T10:18:09;6.40;;;5.07;;
9280;SDS011;4679;47.966;7.958;2023-02-13T10:20:16;7.83;;;5.37;;
9280;SDS011;4679;47.966;7.958;2023-02-13T10:22:28;6.57;;;4.77;;
9280;SDS011;4679;47.966;7.958;2023-02-13T10:24:34;5.63;;;4.93;;
9280;SDS011;4679;47.966;7.958;2023-02-13T10:26:40;5.77;;;4.93;;
9280;SDS011;4679;47.966;7.958;2023-02-13T10:28:45;6.33;;;5.40;;
9280;SDS011;4679;47.966;7.958;2023-02-13T10:31:13;6.47;;;4.80;;
9280;SDS011;4679;47.966;7.958;2023-02-13T10:33:18;6.27;;;4.97;;
9280;SDS011;4679;47.966;7.958;2023-02-13T10:35:25;4.70;;;4.10;;
9280;SDS011;4679;47.966;7.958;2023-02-13T10:37:29;5.90;;;4.33;;
9280;SDS011;4679;47.966;7.958;2023-02-13T10:39:32;7.90;;;4.13;;
9280;SDS011;4679;47.966;7.958;2023-02-13T10:41:36;5.23;;;4.27;;
9280;SDS011;4679;47.966;7.958;2023-02-13T10:43:58;6.40;;;4.80;;
9280;SDS011;4679;47.966;7.958;2023-02-13T10:46:13;5.87;;;4.87;;
9280;SDS011;4679;47.966;7.958;2023-02-13T10:48:28;7.27;;;4.93;;
9280;SDS011;4679;47.966;7.958;2023-02-13T10:50:43;6.37;;;4.53;;
9280;SDS011;4679;47.966;7.958;2023-02-13T10:52:57;7.50;;;5.70;;
9280;SDS011;4679;47.966;7.958;2023-02-13T10:55:12;6.40;;;5.00;;
9280;SDS011;4679;47.966;7.958;2023-02-13T10:57:23;10.23;;;6.93;;
9280;SDS011;4679;47.966;7.958;2023-02-13T10:59:41;9.93;;;7.13;;
9280;SDS011;4679;47.966;7.958;2023-02-13T11:01:52;11.23;;;7.90;;
9280;SDS011;4679;47.966;7.958;2023-02-13T11:04:02;13.17;;;8.77;;
9280;SDS011;4679;47.966;7.958;2023-02-13T11:06:07;9.33;;;6.87;;
9280;SDS011;4679;47.966;7.958;2023-02-13T11:08:12;11.60;;;8.23;;
9280;SDS011;4679;47.966;7.958;2023-02-13T11:10:19;12.37;;;8.53;;
9280;SDS011;4679;47.966;7.958;2023-02-13T11:12:23;10.77;;;8.20;;
9280;SDS011;4679;47.966;7.958;2023-02-13T11:14:27;9.17;;;7.10;;
9280;SDS011;4679;47.966;7.958;2023-02-13T11:16:30;14.20;;;7.83;;
9280;SDS011;4679;47.966;7.958;2023-02-13T11:18:39;9.60;;;7.20;;
9280;SDS011;4679;47.966;7.958;2023-02-13T11:20:44;6.73;;;6.10;;
9280;SDS011;4679;47.966;7.958;2023-02-13T11:22:48;8.17;;;6.57;;
9280;SDS011;4679;47.966;7.958;2023-02-13T11:24:52;7.03;;;6.33;;
9280;SDS011;4679;47.966;7.958;2023-02-13T11:26:59;11.47;;;7.00;;
9280;SDS011;4679;47.966;7.958;2023-02-13T11:29:05;7.43;;;6.27;;
9280;SDS011;4679;47.966;7.958;2023-02-13T11:31:21;8.33;;;6.67;;
9280;SDS011;4679;47.966;7.958;2023-02-13T11:33:27;9.47;;;7.47;;
9280;SDS011;4679;47.966;7.958;2023-02-13T11:35:29;10.20;;;9.10;;
9280;SDS011;4679;47.966;7.958;2023-02-13T11:37:33;12.50;;;9.40;;
9280;SDS011;4679;47.966;7.958;2023-02-13T11:39:35;12.07;;;9.70;;
9280;SDS011;4679;47.966;7.958;2023-02-13T11:41:38;12.57;;;10.00;;
9280;SDS011;4679;47.966;7.958;2023-02-13T11:43:43;11.80;;;9.77;;
9280;SDS011;4679;47.966;7.958;2023-02-13T11:45:58;12.40;;;9.80;;
9280;SDS011;4679;47.966;7.958;2023-02-13T11:48:02;13.43;;;9.80;;
9280;SDS011;4679;47.966;7.958;2023-02-13T11:50:24;13.67;;;10.00;;
9280;SDS011;4679;47.966;7.958;2023-02-13T11:52:27;16.57;;;12.47;;
9280;SDS011;4679;47.966;7.958;2023-02-13T11:54:32;18.77;;;13.20;;
9280;SDS011;4679;47.966;7.958;2023-02-13T11:56:46;17.33;;;12.77;;
9280;SDS011;4679;47.966;7.958;2023-02-13T11:58:49;14.03;;;12.27;;
9280;SDS011;4679;47.966;7.958;2023-02-13T12:01:22;18.20;;;13.10;;
9280;SDS011;4679;47.966;7.958;2023-02-13T12:03:28;17.50;;;12.90;;
9280;SDS011;4679;47.966;7.958;2023-02-13T12:05:33;16.47;;;13.17;;
9280;SDS011;4679;47.966;7.958;2023-02-13T12:07:34;17.53;;;14.00;;
9280;SDS011;4679;47.966;7.958;2023-02-13T12:09:36;15.20;;;12.77;;
9280;SDS011;4679;47.966;7.958;2023-02-13T12:11:41;17.90;;;13.10;;
9280;SDS011;4679;47.966;7.958;2023-02-13T12:13:46;20.17;;;13.40;;
9280;SDS011;4679;47.966;7.958;2023-02-13T12:15:48;15.87;;;12.97;;
9280;SDS011;4679;47.966;7.958;2023-02-13T12:18:01;19.33;;;13.63;;
9280;SDS011;4679;47.966;7.958;2023-02-13T12:20:10;16.07;;;13.00;;
9280;SDS011;4679;47.966;7.958;2023-02-13T12:22:17;16.57;;;12.57;;
9280;SDS011;4679;47.966;7.958;2023-02-13T12:24:33;18.57;;;13.90;;
9280;SDS011;4679;47.966;7.958;2023-02-13T12:26:49;14.33;;;12.70;;
9280;SDS011;4679;47.966;7.958;2023-02-13T12:29:01;17.33;;;14.57;;
9280;SDS011;4679;47.966;7.958;2023-02-13T12:34:16;17.63;;;13.60;;
9280;SDS011;4679;47.966;7.958;2023-02-13T12:36:32;16.63;;;13.67;;
9280;SDS011;4679;47.966;7.958;2023-02-13T12:38:44;17.47;;;13.53;;
9280;SDS011;4679;47.966;7.958;2023-02-13T12:41:09;18.23;;;13.73;;
9280;SDS011;4679;47.966;7.958;2023-02-13T12:43:24;18.27;;;13.33;;
9280;SDS011;4679;47.966;7.958;2023-02-13T12:45:50;15.77;;;12.70;;
9280;SDS011;4679;47.966;7.958;2023-02-13T12:48:07;17.63;;;12.73;;
9280;SDS011;4679;47.966;7.958;2023-02-13T12:50:30;19.87;;;14.50;;
9280;SDS011;4679;47.966;7.958;2023-02-13T12:52:41;17.93;;;14.00;;
9280;SDS011;4679;47.966;7.958;2023-02-13T12:54:54;15.27;;;12.53;;
9280;SDS011;4679;47.966;7.958;2023-02-13T12:57:06;17.63;;;14.67;;
9280;SDS011;4679;47.966;7.958;2023-02-13T12:59:19;18.30;;;13.70;;
9280;SDS011;4679;47.966;7.958;2023-02-13T13:01:50;18.77;;;13.73;;
9280;SDS011;4679;47.966;7.958;2023-02-13T13:04:05;19.97;;;14.40;;
9280;SDS011;4679;47.966;7.958;2023-02-13T13:06:20;17.27;;;15.13;;
9280;SDS011;4679;47.966;7.958;2023-02-13T13:08:46;18.63;;;13.57;;
9280;SDS011;4679;47.966;7.958;2023-02-13T13:11:05;15.53;;;13.63;;
9280;SDS011;4679;47.966;7.958;2023-02-13T13:13:22;16.47;;;13.67;;
9280;SDS011;4679;47.966;7.958;2023-02-13T13:15:31;21.17;;;15.00;;
9280;SDS011;4679;47.966;7.958;2023-02-13T13:17:42;16.20;;;14.50;;
9280;SDS011;4679;47.966;7.958;2023-02-13T13:19:56;19.00;;;14.03;;
9280;SDS011;4679;47.966;7.958;2023-02-13T13:22:04;17.77;;;13.77;;
9280;SDS011;4679;47.966;7.958;2023-02-13T13:24:17;17.77;;;14.10;;
9280;SDS011;4679;47.966;7.958;2023-02-13T13:26:31;18.77;;;14.37;;
9280;SDS011;4679;47.966;7.958;2023-02-13T13:28:37;14.87;;;12.77;;
9280;SDS011;4679;47.966;7.958;2023-02-13T13:30:41;16.63;;;14.17;;
9280;SDS011;4679;47.966;7.958;2023-02-13T13:32:44;16.40;;;13.33;;
9280;SDS011;4679;47.966;7.958;2023-02-13T13:34:48;17.53;;;14.53;;
9280;SDS011;4679;47.966;7.958;2023-02-13T13:36:52;19.77;;;14.33;;
9280;SDS011;4679;47.966;7.958;2023-02-13T13:39:00;14.97;;;13.03;;
9280;SDS011;4679;47.966;7.958;2023-02-13T13:41:08;19.67;;;14.43;;
9280;SDS011;4679;47.966;7.958;2023-02-13T13:43:18;17.87;;;14.80;;
9280;SDS011;4679;47.966;7.958;2023-02-13T13:45:28;19.00;;;14.90;;
9280;SDS011;4679;47.966;7.958;2023-02-13T13:47:53;17.93;;;13.30;;
9280;SDS011;4679;47.966;7.958;2023-02-13T13:50:11;17.23;;;13.97;;
9280;SDS011;4679;47.966;7.958;2023-02-13T13:52:21;19.50;;;14.07;;
9280;SDS011;4679;47.966;7.958;2023-02-13T13:54:32;16.27;;;14.23;;
9280;SDS011;4679;47.966;7.958;2023-02-13T13:59:07;17.70;;;14.27;;
9280;SDS011;4679;47.966;7.958;2023-02-13T14:01:19;17.53;;;13.93;;
9280;SDS011;4679;47.966;7.958;2023-02-13T14:03:32;16.63;;;13.03;;
9280;SDS011;4679;47.966;7.958;2023-02-13T14:05:55;15.73;;;13.30;;
9280;SDS011;4679;47.966;7.958;2023-02-13T14:08:01;16.40;;;13.47;;
9280;SDS011;4679;47.966;7.958;2023-02-13T14:10:04;17.53;;;14.20;;
9280;SDS011;4679;47.966;7.958;2023-02-13T14:14:48;16.57;;;13.67;;
9280;SDS011;4679;47.966;7.958;2023-02-13T14:16:50;22.00;;;14.77;;
9280;SDS011;4679;47.966;7.958;2023-02-13T14:18:51;16.83;;;13.83;;
9280;SDS011;4679;47.966;7.958;2023-02-13T14:20:54;15.97;;;13.57;;
9280;SDS011;4679;47.966;7.958;2023-02-13T14:23:05;17.17;;;13.47;;
9280;SDS011;4679;47.966;7.958;2023-02-13T14:25:21;18.53;;;13.93;;
9280;SDS011;4679;47.966;7.958;2023-02-13T14:27:25;16.97;;;13.10;;
9280;SDS011;4679;47.966;7.958;2023-02-13T14:29:31;16.67;;;14.40;;
9280;SDS011;4679;47.966;7.958;2023-02-13T14:31:35;17.53;;;14.40;;
9280;SDS011;4679;47.966;7.958;2023-02-13T14:33:39;17.50;;;14.73;;
9280;SDS011;4679;47.966;7.958;2023-02-13T14:35:40;17.27;;;14.37;;
9280;SDS011;4679;47.966;7.958;2023-02-13T14:37:46;16.70;;;14.40;;
9280;SDS011;4679;47.966;7.958;2023-02-13T14:42:27;16.03;;;14.30;;
9280;SDS011;4679;47.966;7.958;2023-02-13T14:44:31;18.63;;;15.20;;
9280;SDS011;4679;47.966;7.958;2023-02-13T14:46:38;19.97;;;14.47;;
9280;SDS011;4679;47.966;7.958;2023-02-13T14:48:42;15.33;;;13.43;;
9280;SDS011;4679;47.966;7.958;2023-02-13T14:50:50;16.63;;;14.80;;
9280;SDS011;4679;47.966;7.958;2023-02-13T14:52:56;18.77;;;14.70;;
9280;SDS011;4679;47.966;7.958;2023-02-13T14:55:02;17.77;;;13.90;;
9280;SDS011;4679;47.966;7.958;2023-02-13T14:57:06;19.63;;;14.90;;
9280;SDS011;4679;47.966;7.958;2023-02-13T14:59:15;18.30;;;14.13;;
9280;SDS011;4679;47.966;7.958;2023-02-13T15:01:22;17.47;;;14.70;;
9280;SDS011;4679;47.966;7.958;2023-02-13T15:03:32;17.80;;;15.80;;
9280;SDS011;4679;47.966;7.958;2023-02-13T15:05:38;18.80;;;15.40;;
9280;SDS011;4679;47.966;7.958;2023-02-13T15:07:41;17.67;;;14.53;;
9280;SDS011;4679;47.966;7.958;2023-02-13T15:09:48;21.20;;;15.60;;
9280;SDS011;4679;47.966;7.958;2023-02-13T15:11:52;18.17;;;15.37;;
9280;SDS011;4679;47.966;7.958;2023-02-13T15:13:54;19.43;;;15.70;;
9280;SDS011;4679;47.966;7.958;2023-02-13T15:15:56;24.77;;;17.80;;
9280;SDS011;4679;47.966;7.958;2023-02-13T15:18:01;19.23;;;15.60;;
9280;SDS011;4679;47.966;7.958;2023-02-13T15:20:16;18.27;;;15.60;;
9280;SDS011;4679;47.966;7.958;2023-02-13T15:22:26;18.40;;;14.73;;
9280;SDS011;4679;47.966;7.958;2023-02-13T15:24:36;21.17;;;16.03;;
9280;SDS011;4679;47.966;7.958;2023-02-13T15:26:48;20.27;;;15.97;;
9280;SDS011;4679;47.966;7.958;2023-02-13T15:28:59;21.23;;;16.00;;
9280;SDS011;4679;47.966;7.958;2023-02-13T15:31:05;18.43;;;15.77;;
9280;SDS011;4679;47.966;7.958;2023-02-13T15:33:14;20.03;;;15.70;;
9280;SDS011;4679;47.966;7.958;2023-02-13T15:35:22;18.13;;;15.37;;
9280;SDS011;4679;47.966;7.958;2023-02-13T15:37:26;21.33;;;15.40;;
9280;SDS011;4679;47.966;7.958;2023-02-13T15:39:30;19.90;;;15.40;;
9280;SDS011;4679;47.966;7.958;2023-02-13T15:41:32;20.33;;;15.43;;
9280;SDS011;4679;47.966;7.958;2023-02-13T15:43:37;21.87;;;16.03;;
9280;SDS011;4679;47.966;7.958;2023-02-13T15:45:42;21.53;;;15.87;;
9280;SDS011;4679;47.966;7.958;2023-02-13T15:47:44;21.90;;;16.30;;
9280;SDS011;4679;47.966;7.958;2023-02-13T15:49:47;23.43;;;17.43;;
9280;SDS011;4679;47.966;7.958;2023-02-13T15:52:02;22.27;;;17.20;;
9280;SDS011;4679;47.966;7.958;2023-02-13T15:54:06;25.10;;;17.60;;
9280;SDS011;4679;47.966;7.958;2023-02-13T15:56:22;24.40;;;17.10;;
9280;SDS011;4679;47.966;7.958;2023-02-13T15:58:25;22.70;;;17.03;;
9280;SDS011;4679;47.966;7.958;2023-02-13T16:00:32;24.73;;;17.83;;
9280;SDS011;4679;47.966;7.958;2023-02-13T16:02:37;24.23;;;17.90;;
9280;SDS011;4679;47.966;7.958;2023-02-13T16:04:42;22.23;;;17.13;;
9280;SDS011;4679;47.966;7.958;2023-02-13T16:06:44;27.03;;;18.13;;
9280;SDS011;4679;47.966;7.958;2023-02-13T16:08:51;24.90;;;18.27;;
9280;SDS011;4679;47.966;7.958;2023-02-13T16:13:30;26.57;;;17.20;;
9280;SDS011;4679;47.966;7.958;2023-02-13T16:15:32;26.93;;;18.63;;
9280;SDS011;4679;47.966;7.958;2023-02-13T16:17:36;27.20;;;19.00;;
9280;SDS011;4679;47.966;7.958;2023-02-13T16:19:41;26.70;;;18.20;;
9280;SDS011;4679;47.966;7.958;2023-02-13T16:21:52;26.27;;;18.23;;
9280;SDS011;4679;47.966;7.958;2023-02-13T16:23:57;28.60;;;18.53;;
9280;SDS011;4679;47.966;7.958;2023-02-13T16:26:04;28.30;;;18.73;;
9280;SDS011;4679;47.966;7.958;2023-02-13T16:28:16;26.30;;;17.60;;
9280;SDS011;4679;47.966;7.958;2023-02-13T16:30:24;26.17;;;18.83;;
9280;SDS011;4679;47.966;7.958;2023-02-13T16:32:33;26.90;;;20.13;;
9280;SDS011;4679;47.966;7.958;2023-02-13T16:34:37;35.67;;;17.37;;
9280;SDS011;4679;47.966;7.958;2023-02-13T16:36:38;21.83;;;17.37;;
9280;SDS011;4679;47.966;7.958;2023-02-13T16:38:40;22.03;;;15.13;;
9280;SDS011;4679;47.966;7.958;2023-02-13T16:40:45;25.10;;;13.87;;
9280;SDS011;4679;47.966;7.958;2023-02-13T16:42:47;19.33;;;11.90;;
9280;SDS011;4679;47.966;7.958;2023-02-13T16:44:48;14.67;;;9.97;;
9280;SDS011;4679;47.966;7.958;2023-02-13T16:46:51;16.13;;;12.63;;
9280;SDS011;4679;47.966;7.958;2023-02-13T16:51:32;15.07;;;10.70;;
9280;SDS011;4679;47.966;7.958;2023-02-13T16:53:37;16.23;;;12.50;;
9280;SDS011;4679;47.966;7.958;2023-02-13T16:55:40;20.57;;;14.10;;
9280;SDS011;4679;47.966;7.958;2023-02-13T16:57:43;17.80;;;13.93;;
9280;SDS011;4679;47.966;7.958;2023-02-13T17:00:02;22.60;;;14.87;;
9280;SDS011;4679;47.966;7.958;2023-02-13T17:02:15;17.93;;;12.63;;
9280;SDS011;4679;47.966;7.958;2023-02-13T17:04:20;28.50;;;18.83;;
9280;SDS011;4679;47.966;7.958;2023-02-13T17:06:23;30.73;;;19.17;;
9280;SDS011;4679;47.966;7.958;2023-02-13T17:08:25;22.07;;;15.87;;
9280;SDS011;4679;47.966;7.958;2023-02-13T17:10:27;28.83;;;17.63;;
9280;SDS011;4679;47.966;7.958;2023-02-13T17:12:34;16.77;;;12.57;;
9280;SDS011;4679;47.966;7.958;2023-02-13T17:14:39;19.60;;;14.07;;
9280;SDS011;4679;47.966;7.958;2023-02-13T17:16:40;19.00;;;13.07;;
9280;SDS011;4679;47.966;7.958;2023-02-13T17:18:42;23.30;;;15.50;;
9280;SDS011;4679;47.966;7.958;2023-02-13T17:20:44;20.13;;;13.57;;
9280;SDS011;4679;47.966;7.958;2023-02-13T17:22:46;22.60;;;15.07;;
9280;SDS011;4679;47.966;7.958;2023-02-13T17:24:49;23.93;;;14.97;;
9280;SDS011;4679;47.966;7.958;2023-02-13T17:26:50;23.10;;;13.73;;
9280;SDS011;4679;47.966;7.958;2023-02-13T17:28:52;15.90;;;12.17;;
9280;SDS011;4679;47.966;7.958;2023-02-13T17:30:55;19.00;;;12.43;;
9280;SDS011;4679;47.966;7.958;2023-02-13T17:33:00;23.13;;;14.87;;
9280;SDS011;4679;47.966;7.958;2023-02-13T17:35:04;19.27;;;13.20;;
9280;SDS011;4679;47.966;7.958;2023-02-13T17:37:07;18.80;;;13.63;;
9280;SDS011;4679;47.966;7.958;2023-02-13T17:39:16;19.47;;;13.90;;
9280;SDS011;4679;47.966;7.958;2023-02-13T17:41:18;19.37;;;11.93;;
9280;SDS011;4679;47.966;7.958;2023-02-13T17:43:20;16.70;;;11.07;;
9280;SDS011;4679;47.966;7.958;2023-02-13T17:45:23;18.83;;;12.53;;
9280;SDS011;4679;47.966;7.958;2023-02-13T17:47:27;15.00;;;10.83;;
9280;SDS011;4679;47.966;7.958;2023-02-13T17:49:30;19.30;;;12.13;;
9280;SDS011;4679;47.966;7.958;2023-02-13T17:51:31;21.17;;;12.60;;
9280;SDS011;4679;47.966;7.958;2023-02-13T17:53:33;17.33;;;11.67;;
9280;SDS011;4679;47.966;7.958;2023-02-13T17:55:36;12.33;;;9.03;;
9280;SDS011;4679;47.966;7.958;2023-02-13T17:57:37;14.60;;;9.00;;
9280;SDS011;4679;47.966;7.958;2023-02-13T18:04:45;13.97;;;8.13;;
9280;SDS011;4679;47.966;7.958;2023-02-13T18:06:50;11.03;;;9.10;;
9280;SDS011;4679;47.966;7.958;2023-02-13T18:08:52;15.03;;;9.70;;
9280;SDS011;4679;47.966;7.958;2023-02-13T18:10:53;14.20;;;9.83;;
9280;SDS011;4679;47.966;7.958;2023-02-13T18:12:56;13.90;;;9.10;;
9280;SDS011;4679;47.966;7.958;2023-02-13T18:15:03;13.47;;;8.70;;
9280;SDS011;4679;47.966;7.958;2023-02-13T18:17:05;16.77;;;10.63;;
9280;SDS011;4679;47.966;7.958;2023-02-13T18:19:07;16.33;;;10.63;;
9280;SDS011;4679;47.966;7.958;2023-02-13T18:21:10;20.50;;;12.23;;
9280;SDS011;4679;47.966;7.958;2023-02-13T18:23:11;18.43;;;12.33;;
9280;SDS011;4679;47.966;7.958;2023-02-13T18:25:14;19.13;;;10.87;;
9280;SDS011;4679;47.966;7.958;2023-02-13T18:27:15;14.13;;;10.67;;
9280;SDS011;4679;47.966;7.958;2023-02-13T18:29:18;13.13;;;9.60;;
9280;SDS011;4679;47.966;7.958;2023-02-13T18:31:19;17.10;;;12.80;;
9280;SDS011;4679;47.966;7.958;2023-02-13T18:33:21;33.33;;;23.23;;
9280;SDS011;4679;47.966;7.958;2023-02-13T18:35:22;22.43;;;15.57;;
9280;SDS011;4679;47.966;7.958;2023-02-13T18:37:25;21.97;;;15.47;;
9280;SDS011;4679;47.966;7.958;2023-02-13T18:39:28;15.37;;;11.03;;
9280;SDS011;4679;47.966;7.958;2023-02-13T18:41:30;15.67;;;12.00;;
9280;SDS011;4679;47.966;7.958;2023-02-13T18:43:31;12.27;;;8.93;;
9280;SDS011;4679;47.966;7.958;2023-02-13T18:45:34;15.00;;;8.67;;
9280;SDS011;4679;47.966;7.958;2023-02-13T18:47:36;11.53;;;7.73;;
9280;SDS011;4679;47.966;7.958;2023-02-13T18:49:38;12.03;;;7.33;;
9280;SDS011;4679;47.966;7.958;2023-02-13T18:51:40;10.37;;;6.23;;
9280;SDS011;4679;47.966;7.958;2023-02-13T18:53:44;12.73;;;7.10;;
9280;SDS011;4679;47.966;7.958;2023-02-13T18:55:46;8.53;;;6.30;;
9280;SDS011;4679;47.966;7.958;2023-02-13T18:57:50;14.33;;;8.63;;
9280;SDS011;4679;47.966;7.958;2023-02-13T18:59:52;10.70;;;8.83;;
9280;SDS011;4679;47.966;7.958;2023-02-13T19:01:53;11.57;;;8.90;;
9280;SDS011;4679;47.966;7.958;2023-02-13T19:03:55;10.03;;;8.27;;
9280;SDS011;4679;47.966;7.958;2023-02-13T19:05:57;14.70;;;9.10;;
9280;SDS011;4679;47.966;7.958;2023-02-13T19:07:59;12.33;;;9.47;;
9280;SDS011;4679;47.966;7.958;2023-02-13T19:10:02;13.97;;;10.63;;
9280;SDS011;4679;47.966;7.958;2023-02-13T19:12:04;16.87;;;9.60;;
9280;SDS011;4679;47.966;7.958;2023-02-13T19:14:06;14.73;;;9.87;;
9280;SDS011;4679;47.966;7.958;2023-02-13T19:16:08;16.13;;;10.77;;
9280;SDS011;4679;47.966;7.958;2023-02-13T19:18:11;12.37;;;10.10;;
9280;SDS011;4679;47.966;7.958;2023-02-13T19:20:12;12.90;;;9.77;;
9280;SDS011;4679;47.966;7.958;2023-02-13T19:22:14;10.90;;;8.90;;
9280;SDS011;4679;47.966;7.958;2023-02-13T19:24:16;15.47;;;10.20;;
9280;SDS011;4679;47.966;7.958;2023-02-13T19:26:19;9.37;;;8.23;;
9280;SDS011;4679;47.966;7.958;2023-02-13T19:28:23;11.03;;;8.57;;
9280;SDS011;4679;47.966;7.958;2023-02-13T19:30:24;9.73;;;8.07;;
9280;SDS011;4679;47.966;7.958;2023-02-13T19:32:26;8.53;;;7.37;;
9280;SDS011;4679;47.966;7.958;2023-02-13T19:34:27;12.10;;;9.47;;